Time;durP1;ratioP1;P1;durP2;ratioP2;P2;SDS_P1;SDS_P2;PMS_P1;PMS_P2;Temp;Humidity;BMP_temperature;BMP_pressure;BME280_temperature;BME280_humidity;BME280_pressure;Samples;Min_cycle;Max_cycle;Signal;HPM_P1;HPM_P2
2023/01/15 00:02:08;;;;;;;11.20;10.50;;;6.80;99.90;;;;;;5072102;28;20980;-70
2023/01/15 00:04:36;;;;;;;9.80;9.30;;;6.80;99.90;;;;;;5070391;28;21151;-70
2023/01/15 00:07:04;;;;;;;10.10;9.53;;;6.80;99.90;;;;;;5070575;28;20461;-71
2023/01/15 00:09:30;;;;;;;10.20;9.50;;;6.70;99.90;;;;;;5071867;28;20556;-70
2023/01/15 00:11:57;;;;;;;11.20;10.17;;;6.70;99.90;;;;;;5072420;28;20469;-71
2023/01/15 00:14:24;;;;;;;10.87;10.37;;;6.60;99.90;;;;;;5069863;28;20477;-71
2023/01/15 00:16:52;;;;;;;10.90;10.50;;;6.50;99.90;;;;;;5064115;28;20477;-72
2023/01/15 00:19:19;;;;;;;11.57;11.00;;;6.40;99.90;;;;;;5077068;28;20572;-71
2023/01/15 00:21:47;;;;;;;11.87;10.90;;;6.40;99.90;;;;;;5064916;28;20803;-71
2023/01/15 00:29:43;;;;;;;10.33;9.70;;;6.30;99.90;;;;;;5058898;28;20496;-71
2023/01/15 00:32:09;;;;;;;10.20;9.60;;;6.40;99.90;;;;;;5066548;28;20464;-72
2023/01/15 00:34:36;;;;;;;9.20;8.70;;;6.40;99.90;;;;;;5067079;28;20455;-71
2023/01/15 00:37:05;;;;;;;9.47;8.90;;;6.30;99.90;;;;;;5071358;28;21010;-72
2023/01/15 00:39:32;;;;;;;9.63;9.10;;;6.30;99.90;;;;;;5071160;28;20487;-71
2023/01/15 00:41:58;;;;;;;9.27;8.80;;;6.30;99.90;;;;;;5068556;28;20551;-72
2023/01/15 00:44:25;;;;;;;11.13;9.27;;;6.30;99.90;;;;;;5066863;28;21011;-70
2023/01/15 00:46:52;;;;;;;10.93;9.87;;;6.20;99.90;;;;;;5075764;28;20471;-70
2023/01/15 00:49:20;;;;;;;10.33;9.80;;;6.20;99.90;;;;;;5066906;28;20896;-70
2023/01/15 00:51:48;;;;;;;9.37;9.00;;;6.20;99.90;;;;;;5064979;28;20463;-72
2023/01/15 00:54:16;;;;;;;10.10;9.20;;;6.10;99.90;;;;;;5067331;28;20900;-70
2023/01/15 00:56:44;;;;;;;9.60;9.00;;;6.10;99.90;;;;;;5071505;28;20757;-71
2023/01/15 00:59:10;;;;;;;10.20;9.50;;;6.10;99.90;;;;;;5069054;28;20848;-70
2023/01/15 01:01:38;;;;;;;9.07;8.57;;;6.10;99.90;;;;;;5067270;28;20465;-70
2023/01/15 01:04:05;;;;;;;9.20;8.80;;;6.10;99.90;;;;;;5060711;28;20524;-72
2023/01/15 01:06:32;;;;;;;9.70;9.10;;;6.10;99.90;;;;;;5065149;28;20837;-71
2023/01/15 01:08:59;;;;;;;9.87;9.17;;;6.10;99.90;;;;;;5068895;28;20524;-71
2023/01/15 01:11:31;;;;;;;9.70;9.10;;;6.10;99.90;;;;;;5062678;28;20517;-70
2023/01/15 01:13:58;;;;;;;10.27;9.67;;;6.10;99.90;;;;;;5069698;28;20512;-71
2023/01/15 01:16:29;;;;;;;12.70;9.47;;;6.20;99.90;;;;;;5070990;28;20473;-72
2023/01/15 01:18:57;;;;;;;10.10;9.50;;;6.20;99.90;;;;;;5069404;28;20458;-70
2023/01/15 01:21:24;;;;;;;9.50;9.10;;;6.20;99.90;;;;;;5065431;28;20473;-71
2023/01/15 01:23:51;;;;;;;10.47;9.97;;;6.20;99.90;;;;;;5068329;28;20601;-70
2023/01/15 01:26:19;;;;;;;10.23;9.63;;;6.20;99.90;;;;;;5076684;28;20473;-71
2023/01/15 01:28:50;;;;;;;10.37;9.77;;;6.20;99.90;;;;;;5073128;28;20481;-72
2023/01/15 01:31:17;;;;;;;9.60;9.00;;;6.20;99.90;;;;;;5067092;28;20467;-72
2023/01/15 01:33:45;;;;;;;10.07;9.47;;;6.20;99.90;;;;;;5062447;28;20470;-71
2023/01/15 01:36:11;;;;;;;10.23;9.50;;;6.20;99.90;;;;;;5065927;28;20471;-71
2023/01/15 01:38:38;;;;;;;9.67;9.23;;;6.20;99.90;;;;;;5067214;28;20451;-72
2023/01/15 01:41:05;;;;;;;10.00;9.30;;;6.20;99.90;;;;;;5064593;28;20493;-70
2023/01/15 01:43:56;;;;;;;8.83;8.53;;;6.30;99.90;;;;;;5067022;28;20967;-72
2023/01/15 01:46:24;;;;;;;9.83;9.23;;;6.20;99.90;;;;;;5069851;28;20496;-71
2023/01/15 01:48:53;;;;;;;9.73;9.30;;;6.20;99.90;;;;;;5060513;28;20502;-72
2023/01/15 01:51:25;;;;;;;9.70;9.10;;;6.30;99.90;;;;;;5068777;28;20466;-72
2023/01/15 01:53:52;;;;;;;9.63;8.73;;;6.30;99.90;;;;;;5065603;28;20984;-71
2023/01/15 01:56:20;;;;;;;10.10;9.40;;;6.30;99.90;;;;;;5069309;28;20519;-71
2023/01/15 01:58:51;;;;;;;8.30;8.00;;;6.30;99.90;;;;;;5066536;28;20451;-71
2023/01/15 02:01:22;;;;;;;8.50;8.10;;;6.30;99.90;;;;;;5059991;28;20459;-70
2023/01/15 02:03:49;;;;;;;8.67;8.27;;;6.30;99.90;;;;;;5067802;28;20469;-70
2023/01/15 02:06:17;;;;;;;8.60;8.10;;;6.30;99.90;;;;;;5075228;28;20774;-71
2023/01/15 02:08:43;;;;;;;8.47;7.87;;;6.40;99.90;;;;;;5066608;28;20686;-70
2023/01/15 02:11:17;;;;;;;7.93;7.57;;;6.40;99.90;;;;;;5066467;28;20466;-70
2023/01/15 02:13:49;;;;;;;8.90;8.10;;;6.40;99.90;;;;;;5055505;28;20463;-72
2023/01/15 02:16:22;;;;;;;9.40;8.60;;;6.40;99.90;;;;;;5067047;28;20469;-70
2023/01/15 02:18:56;;;;;;;16.00;8.67;;;6.40;99.90;;;;;;5065458;28;20826;-72
2023/01/15 02:21:30;;;;;;;8.73;8.23;;;6.40;99.90;;;;;;5070736;28;21009;-71
2023/01/15 02:24:09;;;;;;;9.50;8.90;;;6.40;99.90;;;;;;5075628;28;20470;-71
2023/01/15 02:27:02;;;;;;;7.83;7.13;;;6.40;99.90;;;;;;5072563;28;20461;-72
2023/01/15 02:29:34;;;;;;;7.67;7.37;;;6.50;99.90;;;;;;5063414;28;20492;-70
2023/01/15 02:32:05;;;;;;;7.73;7.33;;;6.50;99.90;;;;;;5065639;28;20489;-72
2023/01/15 02:34:38;;;;;;;8.67;7.70;;;6.50;99.90;;;;;;5067382;28;20462;-70
2023/01/15 02:37:08;;;;;;;7.90;7.47;;;6.60;99.90;;;;;;5068259;28;20463;-71
2023/01/15 02:39:38;;;;;;;8.90;8.20;;;6.50;99.90;;;;;;5063587;28;20490;-69
2023/01/15 02:42:09;;;;;;;8.27;7.70;;;6.50;99.90;;;;;;5063423;28;20484;-69
2023/01/15 02:44:38;;;;;;;8.53;7.93;;;6.60;99.90;;;;;;5073878;28;20462;-71
2023/01/15 02:47:06;;;;;;;8.00;7.50;;;6.60;99.90;;;;;;5067686;28;20453;-70
2023/01/15 02:49:35;;;;;;;15.10;8.00;;;6.70;99.90;;;;;;5065137;28;21005;-71
2023/01/15 02:52:14;;;;;;;8.37;7.97;;;6.60;99.90;;;;;;5061102;28;20845;-71
2023/01/15 02:54:45;;;;;;;7.90;7.47;;;6.60;99.90;;;;;;5064210;28;20608;-70
2023/01/15 02:57:15;;;;;;;7.83;7.47;;;6.70;99.90;;;;;;5073365;28;20524;-71
2023/01/15 02:59:46;;;;;;;8.30;7.50;;;6.70;99.90;;;;;;5069519;28;20449;-72
2023/01/15 03:02:20;;;;;;;9.13;7.27;;;6.80;99.90;;;;;;5075439;28;20458;-71
2023/01/15 03:04:52;;;;;;;7.80;7.40;;;6.80;99.90;;;;;;5066879;28;20461;-70
2023/01/15 03:07:24;;;;;;;8.83;8.33;;;6.80;99.90;;;;;;5074245;28;20466;-71
2023/01/15 03:09:53;;;;;;;8.90;8.30;;;6.70;99.90;;;;;;5073824;28;20478;-71
2023/01/15 03:12:27;;;;;;;8.60;8.10;;;6.70;99.90;;;;;;5070023;28;20450;-72
2023/01/15 03:15:02;;;;;;;9.77;8.83;;;6.70;99.90;;;;;;5069466;28;20962;-69
2023/01/15 03:17:35;;;;;;;9.70;9.10;;;6.80;99.90;;;;;;5075403;28;20478;-70
2023/01/15 03:20:08;;;;;;;9.67;8.87;;;6.70;99.90;;;;;;5065712;28;20457;-70
2023/01/15 03:22:39;;;;;;;9.30;8.70;;;6.80;99.90;;;;;;5070237;28;20781;-72
2023/01/15 03:25:11;;;;;;;9.03;8.50;;;6.70;99.90;;;;;;5073856;28;20466;-69
2023/01/15 03:27:39;;;;;;;9.10;8.20;;;6.70;99.90;;;;;;5067411;28;20792;-70
2023/01/15 03:30:09;;;;;;;8.23;7.73;;;6.70;99.90;;;;;;5073907;28;21164;-70
2023/01/15 03:32:37;;;;;;;8.97;8.30;;;6.70;99.90;;;;;;5070235;28;20457;-71
2023/01/15 03:35:06;;;;;;;8.53;8.13;;;6.70;99.90;;;;;;5071653;28;20512;-73
2023/01/15 03:37:33;;;;;;;9.83;9.10;;;6.70;99.90;;;;;;5069744;28;20486;-70
2023/01/15 03:40:01;;;;;;;8.93;8.20;;;6.70;99.90;;;;;;5074635;28;21074;-71
2023/01/15 03:42:39;;;;;;;8.97;8.10;;;6.70;99.90;;;;;;5073583;28;20505;-72
2023/01/15 03:45:15;;;;;;;8.30;8.00;;;6.60;99.90;;;;;;5071822;28;20476;-72
2023/01/15 03:47:53;;;;;;;11.57;10.70;;;6.60;99.90;;;;;;5071738;28;20473;-71
2023/01/15 03:50:28;;;;;;;8.53;7.83;;;6.70;99.90;;;;;;5065846;28;20545;-72
2023/01/15 03:53:04;;;;;;;8.67;8.17;;;6.70;99.90;;;;;;5069970;28;20464;-72
2023/01/15 03:55:45;;;;;;;9.60;8.43;;;6.70;99.90;;;;;;5072494;28;20544;-71
2023/01/15 03:58:17;;;;;;;9.20;8.40;;;6.70;99.90;;;;;;5074451;28;20646;-71
2023/01/15 04:00:50;;;;;;;9.90;9.30;;;6.60;99.90;;;;;;5070684;28;20823;-71
2023/01/15 04:03:19;;;;;;;9.57;8.27;;;6.60;99.90;;;;;;5073008;28;20462;-71
2023/01/15 04:05:47;;;;;;;9.17;8.30;;;6.70;99.90;;;;;;5065373;28;20474;-72
2023/01/15 04:08:15;;;;;;;8.80;7.90;;;6.60;99.90;;;;;;5072134;28;20884;-73
2023/01/15 04:10:52;;;;;;;8.70;8.10;;;6.70;99.90;;;;;;5073027;28;21330;-71
2023/01/15 04:13:18;;;;;;;10.93;7.80;;;6.60;99.90;;;;;;5074175;28;20470;-69
2023/01/15 04:15:47;;;;;;;8.67;8.07;;;6.60;99.90;;;;;;5068751;28;20470;-72
2023/01/15 04:18:14;;;;;;;8.87;8.07;;;6.60;99.90;;;;;;5073443;28;20462;-73
2023/01/15 04:20:42;;;;;;;9.47;8.47;;;6.70;99.90;;;;;;5066865;28;20505;-71
2023/01/15 04:23:10;;;;;;;8.53;7.77;;;6.70;99.90;;;;;;5070803;28;20466;-72
2023/01/15 04:25:38;;;;;;;8.80;8.00;;;6.60;99.90;;;;;;5067396;28;20469;-71
2023/01/15 04:28:05;;;;;;;8.67;8.10;;;6.60;99.90;;;;;;5073536;28;20460;-70
2023/01/15 04:30:32;;;;;;;8.40;8.00;;;6.60;99.90;;;;;;5073250;28;20493;-71
2023/01/15 04:33:00;;;;;;;9.13;8.30;;;6.60;99.90;;;;;;5067209;28;20463;-70
2023/01/15 04:35:27;;;;;;;8.60;8.17;;;6.60;99.90;;;;;;5070837;28;20451;-70
2023/01/15 04:37:55;;;;;;;8.87;7.93;;;6.60;99.90;;;;;;5074932;28;20468;-71
2023/01/15 04:45:54;;;;;;;13.70;8.53;;;6.60;99.90;;;;;;5067269;28;20488;-72
2023/01/15 04:48:22;;;;;;;8.67;7.90;;;6.70;99.90;;;;;;5070642;28;20466;-72
2023/01/15 04:50:50;;;;;;;8.87;8.07;;;6.70;99.90;;;;;;5070015;28;20487;-70
2023/01/15 04:53:17;;;;;;;10.70;8.43;;;6.70;99.90;;;;;;5066403;28;20462;-71
2023/01/15 04:55:43;;;;;;;8.90;8.20;;;6.80;99.90;;;;;;5074860;28;20820;-71
2023/01/15 04:58:11;;;;;;;11.73;7.77;;;6.70;99.90;;;;;;5070746;28;20902;-71
2023/01/15 05:00:37;;;;;;;9.27;8.57;;;6.70;99.90;;;;;;5069878;28;20473;-72
2023/01/15 05:03:04;;;;;;;8.63;7.93;;;6.70;99.90;;;;;;5076003;28;20493;-70
2023/01/15 05:05:32;;;;;;;8.90;8.10;;;6.70;99.90;;;;;;5070089;28;20910;-70
2023/01/15 05:07:59;;;;;;;14.13;8.77;;;6.70;99.90;;;;;;5074075;28;21457;-72
2023/01/15 05:10:26;;;;;;;8.37;7.77;;;6.70;99.90;;;;;;5072102;28;20552;-72
2023/01/15 05:12:53;;;;;;;8.40;7.80;;;6.80;99.90;;;;;;5070237;28;20485;-72
2023/01/15 05:15:20;;;;;;;9.20;8.10;;;6.70;99.90;;;;;;5067357;28;20474;-72
2023/01/15 05:17:47;;;;;;;10.40;8.80;;;6.70;99.90;;;;;;5066790;28;20540;-71
2023/01/15 05:20:14;;;;;;;9.07;8.37;;;6.70;99.90;;;;;;5068139;28;20470;-70
2023/01/15 05:22:42;;;;;;;9.00;8.30;;;6.80;99.90;;;;;;5076175;28;20995;-72
2023/01/15 05:25:09;;;;;;;10.30;9.37;;;6.80;99.90;;;;;;5065798;28;20538;-72
2023/01/15 05:27:36;;;;;;;8.60;8.07;;;6.80;99.90;;;;;;5073144;28;20465;-72
2023/01/15 05:30:03;;;;;;;9.50;8.90;;;6.80;99.90;;;;;;5071941;28;20480;-72
2023/01/15 05:32:31;;;;;;;12.63;9.43;;;6.80;99.90;;;;;;5061925;28;20465;-72
2023/01/15 05:34:57;;;;;;;10.13;9.17;;;6.80;99.90;;;;;;5068436;28;20462;-72
2023/01/15 05:37:24;;;;;;;8.40;8.10;;;6.70;99.90;;;;;;5067420;28;20982;-72
2023/01/15 05:39:52;;;;;;;10.80;8.80;;;6.80;99.90;;;;;;5064726;28;20490;-72
2023/01/15 05:42:19;;;;;;;8.90;8.17;;;6.80;99.90;;;;;;5071233;28;20458;-70
2023/01/15 05:44:46;;;;;;;8.63;7.97;;;6.70;99.90;;;;;;5071286;28;20810;-70
2023/01/15 05:47:13;;;;;;;8.83;8.37;;;6.70;99.90;;;;;;5065351;28;20467;-71
2023/01/15 05:49:40;;;;;;;9.27;7.63;;;6.80;99.90;;;;;;5067453;28;20542;-72
2023/01/15 05:52:08;;;;;;;8.60;8.00;;;6.70;99.90;;;;;;5070289;28;20827;-70
2023/01/15 05:54:36;;;;;;;8.90;8.10;;;6.70;99.90;;;;;;5075828;28;20470;-69
2023/01/15 05:57:04;;;;;;;9.40;8.53;;;6.70;99.90;;;;;;5065612;28;20466;-71
2023/01/15 05:59:32;;;;;;;9.00;8.30;;;6.80;99.90;;;;;;5069150;28;20462;-69
2023/01/15 06:01:59;;;;;;;8.90;8.10;;;6.70;99.90;;;;;;5066371;28;20464;-70
2023/01/15 06:04:26;;;;;;;10.00;9.00;;;6.60;99.90;;;;;;5068148;28;20464;-71
2023/01/15 06:06:54;;;;;;;10.00;8.00;;;6.60;99.90;;;;;;5067885;28;20465;-72
2023/01/15 06:09:21;;;;;;;9.13;8.40;;;6.70;99.90;;;;;;5072707;28;20479;-70
2023/01/15 06:11:48;;;;;;;11.07;8.70;;;6.70;99.90;;;;;;5070927;28;20496;-70
2023/01/15 06:14:16;;;;;;;10.70;7.70;;;6.60;99.90;;;;;;5067643;28;20466;-71
2023/01/15 06:16:43;;;;;;;11.47;8.50;;;6.60;99.90;;;;;;5069065;28;20462;-72
2023/01/15 06:19:12;;;;;;;8.13;7.70;;;6.60;99.90;;;;;;5074628;28;20469;-71
2023/01/15 06:21:40;;;;;;;9.03;8.33;;;6.60;99.90;;;;;;5062318;28;20686;-73
2023/01/15 06:24:07;;;;;;;9.13;8.37;;;6.60;99.90;;;;;;5066075;28;20934;-72
2023/01/15 06:26:34;;;;;;;13.57;8.10;;;6.60;99.90;;;;;;5068209;28;21030;-69
2023/01/15 06:29:01;;;;;;;9.10;8.20;;;6.60;99.90;;;;;;5072085;28;20795;-69
2023/01/15 06:31:31;;;;;;;8.63;8.10;;;6.60;99.90;;;;;;5076755;28;20584;-71
2023/01/15 06:33:57;;;;;;;10.03;9.03;;;6.60;99.90;;;;;;5071189;28;20482;-69
2023/01/15 06:36:26;;;;;;;9.20;8.50;;;6.60;99.90;;;;;;5073540;28;20457;-71
2023/01/15 06:38:53;;;;;;;9.43;8.67;;;6.60;99.90;;;;;;5070297;28;20457;-71
2023/01/15 06:49:41;;;;;;;11.80;9.13;;;6.60;99.90;;;;;;5060690;28;20485;-71
2023/01/15 06:52:07;;;;;;;9.37;8.77;;;6.60;99.90;;;;;;5067441;28;20470;-70
2023/01/15 06:54:34;;;;;;;9.10;8.50;;;6.60;99.90;;;;;;5070196;28;20828;-72
2023/01/15 06:57:01;;;;;;;9.47;8.67;;;6.60;99.90;;;;;;5068379;28;20466;-73
2023/01/15 06:59:28;;;;;;;10.10;8.83;;;6.60;99.90;;;;;;5070229;28;20471;-71
2023/01/15 07:01:57;;;;;;;12.00;8.97;;;6.60;99.90;;;;;;5066784;28;20462;-70
2023/01/15 07:04:24;;;;;;;10.60;8.67;;;6.60;99.90;;;;;;5074871;28;20463;-72
2023/01/15 07:06:51;;;;;;;9.97;9.17;;;6.60;99.90;;;;;;5069421;28;20468;-69
2023/01/15 07:09:18;;;;;;;8.70;8.30;;;6.60;99.90;;;;;;5072010;28;20469;-71
2023/01/15 07:11:51;;;;;;;9.73;8.80;;;6.60;99.90;;;;;;5068913;28;21046;-72
2023/01/15 07:14:19;;;;;;;10.07;9.17;;;6.50;99.90;;;;;;5074191;28;20885;-72
2023/01/15 07:16:46;;;;;;;9.77;8.97;;;6.50;99.90;;;;;;5066550;28;20457;-71
2023/01/15 07:19:14;;;;;;;9.57;8.97;;;6.50;99.90;;;;;;5068714;28;21175;-70
2023/01/15 07:21:42;;;;;;;9.60;8.90;;;6.50;99.90;;;;;;5066848;28;20790;-73
2023/01/15 07:24:09;;;;;;;9.93;9.07;;;6.50;99.90;;;;;;5067631;28;20484;-71
2023/01/15 07:26:36;;;;;;;9.30;8.60;;;6.50;99.90;;;;;;5068657;28;20470;-72
2023/01/15 07:29:03;;;;;;;9.43;8.70;;;6.50;99.90;;;;;;5069694;28;20476;-73
2023/01/15 07:31:30;;;;;;;8.73;8.23;;;6.50;99.90;;;;;;5072068;28;20491;-73
2023/01/15 07:33:57;;;;;;;9.80;8.80;;;6.50;99.90;;;;;;5068198;28;20989;-70
2023/01/15 07:36:25;;;;;;;9.13;8.43;;;6.50;99.90;;;;;;5066950;28;20459;-73
2023/01/15 07:38:52;;;;;;;8.90;8.30;;;6.40;99.90;;;;;;5073313;28;20471;-72
2023/01/15 07:49:47;;;;;;;11.33;10.67;;;6.40;99.90;;;;;;5067418;28;20454;-73
2023/01/15 07:52:17;;;;;;;10.40;9.60;;;6.40;99.90;;;;;;5073446;28;20509;-72
2023/01/15 07:54:46;;;;;;;9.63;9.03;;;6.40;99.90;;;;;;5074714;28;20968;-73
2023/01/15 07:57:14;;;;;;;11.17;10.23;;;6.30;99.90;;;;;;5076429;28;21050;-73
2023/01/15 07:59:43;;;;;;;10.00;9.50;;;6.30;99.90;;;;;;5067502;28;20464;-71
2023/01/15 08:02:09;;;;;;;9.80;9.40;;;6.20;99.90;;;;;;5076033;28;20559;-71
2023/01/15 08:04:36;;;;;;;11.03;10.40;;;6.20;99.90;;;;;;5063736;28;20456;-72
2023/01/15 08:07:05;;;;;;;10.20;9.63;;;6.20;99.90;;;;;;5065022;28;20769;-71
2023/01/15 08:09:33;;;;;;;10.93;9.90;;;6.20;99.90;;;;;;5062072;28;20829;-70
2023/01/15 08:17:30;;;;;;;10.40;9.93;;;6.00;99.90;;;;;;5064317;28;20469;-70
2023/01/15 08:19:57;;;;;;;10.50;10.00;;;6.00;99.90;;;;;;5069309;28;20470;-71
2023/01/15 08:22:25;;;;;;;10.53;10.13;;;6.00;99.90;;;;;;5073510;28;20456;-73
2023/01/15 08:24:53;;;;;;;10.90;10.40;;;5.90;99.90;;;;;;5070966;28;20466;-70
2023/01/15 08:27:19;;;;;;;10.10;9.30;;;5.80;99.90;;;;;;5066010;28;20512;-73
2023/01/15 08:29:46;;;;;;;10.60;10.10;;;5.80;99.90;;;;;;5063611;28;20451;-69
2023/01/15 08:32:13;;;;;;;9.60;9.20;;;5.80;99.90;;;;;;5074496;28;20474;-69
2023/01/15 08:34:40;;;;;;;10.00;9.50;;;5.80;99.90;;;;;;5063159;28;20547;-69
2023/01/15 08:37:06;;;;;;;9.13;8.73;;;5.70;99.90;;;;;;5062931;28;20973;-72
2023/01/15 08:39:33;;;;;;;11.97;10.77;;;5.80;99.90;;;;;;5062790;28;20483;-70
2023/01/15 08:42:01;;;;;;;10.50;9.70;;;5.70;99.90;;;;;;5069638;28;20932;-69
2023/01/15 08:44:28;;;;;;;9.17;8.57;;;5.60;99.90;;;;;;5069027;28;20470;-71
2023/01/15 08:46:55;;;;;;;9.17;8.60;;;5.70;99.90;;;;;;5065553;28;20466;-70
2023/01/15 08:49:21;;;;;;;9.00;8.20;;;5.60;99.90;;;;;;5067034;28;20821;-71
2023/01/15 08:51:50;;;;;;;8.50;8.10;;;5.60;99.90;;;;;;5063709;28;20491;-71
2023/01/15 08:54:20;;;;;;;9.33;8.40;;;5.50;99.90;;;;;;5065242;28;20559;-70
2023/01/15 08:56:48;;;;;;;8.40;8.00;;;5.40;99.90;;;;;;5066093;28;20885;-72
2023/01/15 08:59:17;;;;;;;8.07;7.47;;;5.40;99.90;;;;;;5067355;28;20490;-70
2023/01/15 09:01:45;;;;;;;8.30;7.47;;;5.40;99.90;;;;;;5069027;28;20578;-70
2023/01/15 09:04:15;;;;;;;8.97;8.27;;;5.40;99.90;;;;;;5068667;28;20468;-72
2023/01/15 09:06:43;;;;;;;12.70;8.60;;;5.40;99.90;;;;;;5065353;28;20813;-71
2023/01/15 09:09:10;;;;;;;9.33;8.13;;;5.50;99.90;;;;;;5061873;28;20455;-72
2023/01/15 09:11:39;;;;;;;9.27;8.33;;;5.50;99.90;;;;;;5060987;28;20941;-72
2023/01/15 09:14:06;;;;;;;8.63;8.03;;;5.50;99.90;;;;;;5067943;28;20450;-71
2023/01/15 09:16:34;;;;;;;8.43;7.93;;;5.60;99.90;;;;;;5064796;28;20470;-71
2023/01/15 09:19:01;;;;;;;11.17;8.77;;;5.60;99.90;;;;;;5073049;28;20461;-71
2023/01/15 09:21:28;;;;;;;9.00;8.20;;;5.70;99.90;;;;;;5071890;28;20719;-70
2023/01/15 09:23:54;;;;;;;8.40;7.90;;;5.70;99.90;;;;;;5062121;28;20467;-71
2023/01/15 09:26:30;;;;;;;13.47;8.53;;;5.80;99.90;;;;;;5065399;28;20468;-71
2023/01/15 09:28:58;;;;;;;10.73;8.60;;;5.90;99.90;;;;;;5070302;28;20568;-70
2023/01/15 09:31:26;;;;;;;9.73;9.20;;;6.00;99.90;;;;;;5064663;28;20501;-69
2023/01/15 09:33:55;;;;;;;11.43;10.37;;;6.00;99.90;;;;;;5072456;28;20952;-70
2023/01/15 09:36:24;;;;;;;9.60;8.90;;;6.00;99.90;;;;;;5064196;28;20930;-72
2023/01/15 09:38:51;;;;;;;9.73;9.13;;;6.10;99.90;;;;;;5064680;28;20469;-71
2023/01/15 09:44:22;;;;;;;10.40;9.53;;;6.10;99.90;;;;;;5068777;28;20469;-70
2023/01/15 09:47:01;;;;;;;11.57;10.63;;;6.20;99.90;;;;;;5065440;28;20486;-69
2023/01/15 09:49:40;;;;;;;11.20;10.30;;;6.30;99.90;;;;;;5068000;28;20891;-72
2023/01/15 09:52:16;;;;;;;12.27;11.13;;;6.30;99.90;;;;;;5065063;28;20585;-69
2023/01/15 09:54:58;;;;;;;10.70;10.20;;;6.30;99.90;;;;;;5068157;28;20486;-71
2023/01/15 09:57:27;;;;;;;12.67;11.40;;;6.40;99.90;;;;;;5070404;28;20470;-72
2023/01/15 10:00:00;;;;;;;12.07;10.80;;;6.50;99.90;;;;;;5066466;28;20516;-71
2023/01/15 10:02:33;;;;;;;10.77;9.93;;;6.50;99.90;;;;;;5063024;28;20867;-71
2023/01/15 10:05:09;;;;;;;11.53;10.83;;;6.50;99.90;;;;;;5063003;28;20499;-71
2023/01/15 10:07:44;;;;;;;12.17;11.00;;;6.60;99.90;;;;;;5067702;28;20822;-69
2023/01/15 10:10:15;;;;;;;12.37;11.60;;;6.60;99.90;;;;;;5069979;28;20475;-69
2023/01/15 10:12:46;;;;;;;12.20;11.40;;;6.60;99.90;;;;;;5069860;28;21115;-73
2023/01/15 10:15:22;;;;;;;13.43;12.43;;;6.70;99.90;;;;;;5062505;28;20461;-72
2023/01/15 10:17:52;;;;;;;13.17;11.97;;;6.70;99.90;;;;;;5068916;28;20459;-70
2023/01/15 10:20:35;;;;;;;12.77;12.00;;;6.70;99.90;;;;;;5064212;28;20470;-73
2023/01/15 10:23:15;;;;;;;12.63;11.93;;;6.70;99.90;;;;;;5060085;28;20473;-73
2023/01/15 10:25:48;;;;;;;17.00;13.10;;;6.70;99.90;;;;;;5062101;28;20898;-70
2023/01/15 10:28:19;;;;;;;14.17;13.20;;;6.80;99.90;;;;;;5066044;28;20459;-73
2023/01/15 10:30:50;;;;;;;13.10;11.97;;;6.90;99.90;;;;;;5068031;28;20485;-70
2023/01/15 10:33:42;;;;;;;12.33;11.63;;;6.90;99.90;;;;;;5068982;28;20975;-72
2023/01/15 10:36:15;;;;;;;15.50;13.13;;;6.90;99.90;;;;;;5066644;28;20459;-70
2023/01/15 10:38:53;;;;;;;13.00;12.20;;;7.00;99.90;;;;;;5065328;28;20467;-73
2023/01/15 10:41:38;;;;;;;13.50;12.33;;;7.00;99.90;;;;;;5061052;28;20466;-73
2023/01/15 10:44:14;;;;;;;13.03;12.20;;;7.00;99.90;;;;;;5063619;28;20512;-73
2023/01/15 10:46:45;;;;;;;13.47;12.13;;;7.00;99.90;;;;;;5062067;28;20604;-73
2023/01/15 10:49:14;;;;;;;12.27;11.60;;;7.10;99.90;;;;;;5062173;28;20455;-71
2023/01/15 10:51:45;;;;;;;12.87;11.97;;;7.00;99.90;;;;;;5066564;28;20493;-72
2023/01/15 10:54:22;;;;;;;13.63;12.50;;;7.00;99.90;;;;;;5067471;28;20463;-72
2023/01/15 10:56:55;;;;;;;15.10;13.60;;;7.20;99.90;;;;;;5064631;28;20493;-72
2023/01/15 10:59:28;;;;;;;13.43;12.53;;;7.30;99.90;;;;;;5062145;28;20465;-71
2023/01/15 11:01:58;;;;;;;13.80;12.70;;;7.30;99.90;;;;;;5067185;28;20461;-74
2023/01/15 11:04:26;;;;;;;14.90;13.90;;;7.20;99.90;;;;;;5064596;28;20866;-74
2023/01/15 11:06:55;;;;;;;14.60;13.30;;;7.20;99.90;;;;;;5062635;28;21253;-73
2023/01/15 11:09:29;;;;;;;14.83;13.53;;;7.20;99.90;;;;;;5070800;28;20462;-73
2023/01/15 11:20:29;;;;;;;14.23;13.13;;;7.40;99.90;;;;;;5064356;28;20465;-73
2023/01/15 11:23:07;;;;;;;13.87;12.90;;;7.40;99.90;;;;;;5061630;28;21082;-74
2023/01/15 11:25:34;;;;;;;13.70;12.70;;;7.30;99.90;;;;;;5067661;28;20454;-73
2023/01/15 11:28:07;;;;;;;15.87;13.93;;;7.20;99.90;;;;;;5067235;28;20864;-72
2023/01/15 11:30:36;;;;;;;13.77;13.00;;;7.20;99.90;;;;;;5065044;28;20470;-71
2023/01/15 11:33:05;;;;;;;13.37;12.67;;;7.30;99.90;;;;;;5065247;28;20496;-69
2023/01/15 11:35:33;;;;;;;14.13;13.00;;;7.30;99.90;;;;;;5072375;28;20458;-72
2023/01/15 11:38:08;;;;;;;14.93;13.87;;;7.20;99.90;;;;;;5058595;28;20961;-71
2023/01/15 11:40:34;;;;;;;14.83;13.90;;;7.20;99.90;;;;;;5060811;28;20494;-72
2023/01/15 11:51:30;;;;;;;13.07;12.47;;;7.30;99.90;;;;;;5075274;28;20507;-72
2023/01/15 11:54:02;;;;;;;13.97;13.20;;;7.30;99.90;;;;;;5065883;28;20461;-71
2023/01/15 11:56:32;;;;;;;13.47;12.70;;;7.30;99.90;;;;;;5064879;28;20492;-70
2023/01/15 11:59:02;;;;;;;14.17;13.17;;;7.50;99.90;;;;;;5065517;28;20489;-71
2023/01/15 12:01:31;;;;;;;13.40;12.80;;;7.90;99.90;;;;;;5066636;28;20477;-72
2023/01/15 12:04:00;;;;;;;14.47;13.47;;;8.00;99.90;;;;;;5064383;28;20464;-71
2023/01/15 12:06:27;;;;;;;13.40;12.60;;;7.80;99.90;;;;;;5063758;28;20459;-71
2023/01/15 12:09:05;;;;;;;14.67;13.37;;;7.80;99.90;;;;;;5067273;28;20672;-73
2023/01/15 12:11:50;;;;;;;13.87;12.87;;;7.70;99.90;;;;;;5066286;28;20491;-73
2023/01/15 12:14:37;;;;;;;13.70;13.00;;;7.60;99.90;;;;;;5065300;28;20451;-72
2023/01/15 12:17:14;;;;;;;14.50;13.60;;;7.90;99.90;;;;;;5065696;28;20472;-72
2023/01/15 12:19:50;;;;;;;15.23;13.70;;;8.10;99.90;;;;;;5066412;28;20489;-68
2023/01/15 12:25:32;;;;;;;14.90;13.67;;;8.10;99.90;;;;;;5058419;28;20851;-70
2023/01/15 12:28:06;;;;;;;14.73;13.73;;;8.00;99.90;;;;;;5065873;28;20463;-71
2023/01/15 12:30:40;;;;;;;14.50;13.50;;;8.00;99.90;;;;;;5067656;28;20465;-72
2023/01/15 12:33:19;;;;;;;17.67;14.17;;;8.10;99.90;;;;;;5065215;28;20501;-68
2023/01/15 12:35:55;;;;;;;14.17;13.47;;;8.20;99.90;;;;;;5062121;28;21014;-70
2023/01/15 12:38:32;;;;;;;14.27;13.50;;;8.20;99.90;;;;;;5065466;28;20839;-70
2023/01/15 12:41:07;;;;;;;15.20;13.83;;;8.10;99.90;;;;;;5064460;28;20493;-72
2023/01/15 12:46:24;;;;;;;13.87;13.20;;;7.90;99.90;;;;;;5068579;28;20624;-72
2023/01/15 12:48:58;;;;;;;15.70;14.33;;;7.90;99.90;;;;;;5070189;28;20817;-74
2023/01/15 12:51:32;;;;;;;14.10;13.30;;;7.90;99.90;;;;;;5076361;28;20493;-72
2023/01/15 12:54:03;;;;;;;15.20;14.00;;;7.80;99.90;;;;;;5068651;28;20817;-73
2023/01/15 12:56:45;;;;;;;14.17;13.17;;;8.10;99.90;;;;;;5068679;28;20454;-70
2023/01/15 12:59:18;;;;;;;14.67;13.30;;;7.90;99.90;;;;;;5062886;28;20527;-70
2023/01/15 13:01:55;;;;;;;14.30;13.50;;;7.90;99.90;;;;;;5067236;28;20580;-73
2023/01/15 13:04:27;;;;;;;13.40;12.60;;;7.90;99.90;;;;;;5068469;28;20543;-72
2023/01/15 13:07:01;;;;;;;13.27;12.63;;;8.00;99.90;;;;;;5066459;28;20473;-69
2023/01/15 13:09:37;;;;;;;14.67;13.67;;;8.10;99.90;;;;;;5064912;28;20451;-68
2023/01/15 13:12:11;;;;;;;13.83;13.03;;;7.80;99.90;;;;;;5067448;28;20493;-68
2023/01/15 13:14:38;;;;;;;14.73;13.73;;;7.80;99.90;;;;;;5064365;28;20462;-72
2023/01/15 13:17:12;;;;;;;15.33;14.30;;;7.80;99.90;;;;;;5070577;28;20459;-73
2023/01/15 13:19:49;;;;;;;14.40;13.60;;;7.90;99.90;;;;;;5067187;28;20476;-71
2023/01/15 13:22:21;;;;;;;14.67;13.77;;;8.00;99.90;;;;;;5061645;28;20807;-72
2023/01/15 13:25:07;;;;;;;14.37;13.57;;;7.80;99.90;;;;;;5065390;28;20545;-69
2023/01/15 13:27:57;;;;;;;16.27;14.37;;;7.80;99.90;;;;;;5068842;28;20539;-69
2023/01/15 13:30:40;;;;;;;14.17;13.53;;;7.60;99.90;;;;;;5072500;28;20794;-70
2023/01/15 13:33:18;;;;;;;14.73;13.70;;;7.50;99.90;;;;;;5067407;28;20502;-71
2023/01/15 13:35:48;;;;;;;14.30;13.40;;;7.50;99.90;;;;;;5067083;28;20470;-73
2023/01/15 13:38:18;;;;;;;14.07;13.27;;;7.50;99.90;;;;;;5056991;28;20776;-70
2023/01/15 13:40:50;;;;;;;14.90;14.10;;;7.50;99.90;;;;;;5062921;28;20495;-73
2023/01/15 13:43:29;;;;;;;14.03;13.30;;;7.50;99.90;;;;;;5067252;28;20471;-69
2023/01/15 13:45:57;;;;;;;14.63;13.60;;;7.50;99.90;;;;;;5069010;28;20481;-70
2023/01/15 13:48:30;;;;;;;14.83;13.73;;;7.50;99.90;;;;;;5071284;28;20548;-73
2023/01/15 13:50:59;;;;;;;14.63;13.87;;;7.50;99.90;;;;;;5064283;28;20474;-72
2023/01/15 13:53:28;;;;;;;13.73;12.97;;;7.50;99.90;;;;;;5066422;28;20559;-68
2023/01/15 13:55:57;;;;;;;14.23;13.47;;;7.60;99.90;;;;;;5063901;28;20464;-72
2023/01/15 13:58:27;;;;;;;13.57;12.97;;;7.50;99.90;;;;;;5061877;28;20459;-72
2023/01/15 14:01:06;;;;;;;14.10;13.40;;;7.50;99.90;;;;;;5064823;28;20469;-70
2023/01/15 14:03:36;;;;;;;14.50;13.73;;;7.50;99.90;;;;;;5070971;28;20916;-69